Terminal Aerodrome Forecast
Issued by NWS Twin Cities, MN

Home | Current Version | Previous Version | Text Only | Print | Product List | Glossary Off
Versions: 1 2 3 4 5 6 7 8 9 10 11 12 13 14 15 16 17 18 19 20 21 22 23 24 25 26 27 28 29 30

000
FTUS43 KMPX 271720
TAFMSP
TAF
KMSP 271720Z 2718/2824 13012KT P6SM -SHRA SCT020 OVC030
      TEMPO 2718/2720 5SM -SHRA OVC020
     FM272300 03005KT P6SM SCT025 BKN035
     FM280800 07003KT 6SM BR SCT015 OVC040
     FM281100 06004KT 5SM -SHRA BR SCT015 OVC025
     FM281600 07006KT P6SM OVC025
     FM281900 24006KT P6SM BKN040=

USA.gov is the U.S. government's official web portal to all federal, state and local government web resources and services.